sensor_id;sensor_type;location;lat;lon;timestamp;temperature;humidity
36924;DHT22;22841;50.252;18.688;2023-03-31T00:00:53;8.70;99.90
36924;DHT22;22841;50.252;18.688;2023-03-31T00:03:22;8.60;99.90
36924;DHT22;22841;50.252;18.688;2023-03-31T00:05:57;8.50;99.90
36924;DHT22;22841;50.252;18.688;2023-03-31T00:08:24;8.40;99.90
36924;DHT22;22841;50.252;18.688;2023-03-31T00:10:58;8.40;99.90
36924;DHT22;22841;50.252;18.688;2023-03-31T00:13:25;8.50;99.90
36924;DHT22;22841;50.252;18.688;2023-03-31T00:16:00;8.40;99.90
36924;DHT22;22841;50.252;18.688;2023-03-31T00:18:27;8.40;99.90
36924;DHT22;22841;50.252;18.688;2023-03-31T00:20:57;8.40;99.90
36924;DHT22;22841;50.252;18.688;2023-03-31T00:23:24;8.30;99.90
36924;DHT22;22841;50.252;18.688;2023-03-31T00:25:54;8.40;99.90
36924;DHT22;22841;50.252;18.688;2023-03-31T00:28:20;8.40;99.90
36924;DHT22;22841;50.252;18.688;2023-03-31T00:30:47;8.40;99.90
36924;DHT22;22841;50.252;18.688;2023-03-31T00:33:13;8.30;99.90
36924;DHT22;22841;50.252;18.688;2023-03-31T00:35:39;8.30;99.90
36924;DHT22;22841;50.252;18.688;2023-03-31T00:38:05;8.30;99.90
36924;DHT22;22841;50.252;18.688;2023-03-31T00:40:44;8.30;99.90
36924;DHT22;22841;50.252;18.688;2023-03-31T00:43:33;8.30;99.90
36924;DHT22;22841;50.252;18.688;2023-03-31T00:46:06;8.30;99.90
36924;DHT22;22841;50.252;18.688;2023-03-31T00:48:48;8.30;99.90
36924;DHT22;22841;50.252;18.688;2023-03-31T00:51:17;8.30;99.90
36924;DHT22;22841;50.252;18.688;2023-03-31T00:53:49;8.30;99.90
36924;DHT22;22841;50.252;18.688;2023-03-31T00:56:20;8.30;99.90
36924;DHT22;22841;50.252;18.688;2023-03-31T00:58:47;8.30;99.90
36924;DHT22;22841;50.252;18.688;2023-03-31T01:01:18;8.30;99.90
36924;DHT22;22841;50.252;18.688;2023-03-31T01:03:46;8.30;99.90
36924;DHT22;22841;50.252;18.688;2023-03-31T01:06:14;8.30;99.90
36924;DHT22;22841;50.252;18.688;2023-03-31T01:08:42;8.20;99.90
36924;DHT22;22841;50.252;18.688;2023-03-31T01:11:12;8.20;99.90
36924;DHT22;22841;50.252;18.688;2023-03-31T01:13:40;8.20;99.90
36924;DHT22;22841;50.252;18.688;2023-03-31T01:16:06;8.20;99.90
36924;DHT22;22841;50.252;18.688;2023-03-31T01:18:32;8.10;99.90
36924;DHT22;22841;50.252;18.688;2023-03-31T01:46:40;8.00;99.90
36924;DHT22;22841;50.252;18.688;2023-03-31T01:52:05;8.00;99.90
36924;DHT22;22841;50.252;18.688;2023-03-31T02:02:37;7.80;99.90
36924;DHT22;22841;50.252;18.688;2023-03-31T02:05:20;7.70;99.90
36924;DHT22;22841;50.252;18.688;2023-03-31T02:08:03;7.80;99.90
36924;DHT22;22841;50.252;18.688;2023-03-31T02:10:32;7.80;99.90
36924;DHT22;22841;50.252;18.688;2023-03-31T02:13:00;7.80;99.90
36924;DHT22;22841;50.252;18.688;2023-03-31T02:15:31;7.90;99.90
36924;DHT22;22841;50.252;18.688;2023-03-31T02:18:00;7.90;99.90
36924;DHT22;22841;50.252;18.688;2023-03-31T02:20:28;7.90;99.90
36924;DHT22;22841;50.252;18.688;2023-03-31T02:22:57;7.90;99.90
36924;DHT22;22841;50.252;18.688;2023-03-31T02:25:29;7.90;99.90
36924;DHT22;22841;50.252;18.688;2023-03-31T02:28:00;7.90;99.90
36924;DHT22;22841;50.252;18.688;2023-03-31T02:30:35;7.90;99.90
36924;DHT22;22841;50.252;18.688;2023-03-31T02:33:03;7.90;99.90
36924;DHT22;22841;50.252;18.688;2023-03-31T02:35:32;7.90;99.90
36924;DHT22;22841;50.252;18.688;2023-03-31T02:37:59;7.90;99.90
36924;DHT22;22841;50.252;18.688;2023-03-31T02:40:26;7.90;99.90
36924;DHT22;22841;50.252;18.688;2023-03-31T02:42:52;7.80;99.90
36924;DHT22;22841;50.252;18.688;2023-03-31T02:48:09;7.80;99.90
36924;DHT22;22841;50.252;18.688;2023-03-31T02:56:15;7.70;99.90
36924;DHT22;22841;50.252;18.688;2023-03-31T02:59:01;7.70;99.90
36924;DHT22;22841;50.252;18.688;2023-03-31T03:06:45;7.60;99.90
36924;DHT22;22841;50.252;18.688;2023-03-31T03:10:07;7.70;99.90
36924;DHT22;22841;50.252;18.688;2023-03-31T03:15:21;7.70;99.90
36924;DHT22;22841;50.252;18.688;2023-03-31T03:17:49;7.70;99.90
36924;DHT22;22841;50.252;18.688;2023-03-31T03:20:19;7.60;99.90
36924;DHT22;22841;50.252;18.688;2023-03-31T03:22:45;7.60;99.90
36924;DHT22;22841;50.252;18.688;2023-03-31T03:25:13;7.60;99.90
36924;DHT22;22841;50.252;18.688;2023-03-31T03:27:41;7.60;99.90
36924;DHT22;22841;50.252;18.688;2023-03-31T03:30:09;7.60;99.90
36924;DHT22;22841;50.252;18.688;2023-03-31T03:32:36;7.50;99.90
36924;DHT22;22841;50.252;18.688;2023-03-31T03:35:04;7.50;99.90
36924;DHT22;22841;50.252;18.688;2023-03-31T03:37:31;7.50;99.90
36924;DHT22;22841;50.252;18.688;2023-03-31T03:39:57;7.50;99.90
36924;DHT22;22841;50.252;18.688;2023-03-31T03:42:23;7.50;99.90
36924;DHT22;22841;50.252;18.688;2023-03-31T03:44:49;7.50;99.90
36924;DHT22;22841;50.252;18.688;2023-03-31T03:47:15;7.50;99.90
36924;DHT22;22841;50.252;18.688;2023-03-31T03:49:42;7.40;78.50
36924;DHT22;22841;50.252;18.688;2023-03-31T03:52:08;7.40;79.30
36924;DHT22;22841;50.252;18.688;2023-03-31T03:54:34;7.40;78.30
36924;DHT22;22841;50.252;18.688;2023-03-31T03:57:00;7.50;75.60
36924;DHT22;22841;50.252;18.688;2023-03-31T03:59:27;7.50;67.30
36924;DHT22;22841;50.252;18.688;2023-03-31T04:01:53;7.40;99.90
36924;DHT22;22841;50.252;18.688;2023-03-31T04:04:19;7.30;99.90
36924;DHT22;22841;50.252;18.688;2023-03-31T04:06:45;7.30;99.90
36924;DHT22;22841;50.252;18.688;2023-03-31T04:09:11;7.20;79.00
36924;DHT22;22841;50.252;18.688;2023-03-31T04:11:37;7.20;80.10
36924;DHT22;22841;50.252;18.688;2023-03-31T04:14:03;7.10;79.50
36924;DHT22;22841;50.252;18.688;2023-03-31T04:16:29;7.10;85.40
36924;DHT22;22841;50.252;18.688;2023-03-31T04:18:56;7.00;99.90
36924;DHT22;22841;50.252;18.688;2023-03-31T04:21:24;7.00;83.70
36924;DHT22;22841;50.252;18.688;2023-03-31T04:23:52;7.00;84.70
36924;DHT22;22841;50.252;18.688;2023-03-31T04:26:28;6.90;84.90
36924;DHT22;22841;50.252;18.688;2023-03-31T04:29:09;6.90;87.90
36924;DHT22;22841;50.252;18.688;2023-03-31T04:31:37;6.90;83.10
36924;DHT22;22841;50.252;18.688;2023-03-31T04:34:12;6.90;81.90
36924;DHT22;22841;50.252;18.688;2023-03-31T04:36:46;6.90;76.70
36924;DHT22;22841;50.252;18.688;2023-03-31T04:39:16;7.00;99.90
36924;DHT22;22841;50.252;18.688;2023-03-31T04:41:43;7.00;99.90
36924;DHT22;22841;50.252;18.688;2023-03-31T04:44:09;7.00;99.90
36924;DHT22;22841;50.252;18.688;2023-03-31T04:46:35;7.00;99.90
36924;DHT22;22841;50.252;18.688;2023-03-31T04:49:02;6.90;99.90
36924;DHT22;22841;50.252;18.688;2023-03-31T04:51:30;6.90;99.90
36924;DHT22;22841;50.252;18.688;2023-03-31T04:53:56;6.90;99.90
36924;DHT22;22841;50.252;18.688;2023-03-31T04:56:22;6.90;99.90
36924;DHT22;22841;50.252;18.688;2023-03-31T04:58:48;6.90;99.90
36924;DHT22;22841;50.252;18.688;2023-03-31T05:01:14;6.90;99.90
36924;DHT22;22841;50.252;18.688;2023-03-31T05:03:44;6.80;99.90
36924;DHT22;22841;50.252;18.688;2023-03-31T05:06:11;6.80;99.90
36924;DHT22;22841;50.252;18.688;2023-03-31T05:08:37;6.80;99.90
36924;DHT22;22841;50.252;18.688;2023-03-31T05:11:03;6.90;99.90
36924;DHT22;22841;50.252;18.688;2023-03-31T05:13:31;6.80;99.90
36924;DHT22;22841;50.252;18.688;2023-03-31T05:15:57;6.90;99.90
36924;DHT22;22841;50.252;18.688;2023-03-31T05:18:23;6.90;99.90
36924;DHT22;22841;50.252;18.688;2023-03-31T05:20:49;6.90;99.90
36924;DHT22;22841;50.252;18.688;2023-03-31T05:23:15;6.90;99.90
36924;DHT22;22841;50.252;18.688;2023-03-31T05:25:41;6.90;99.90
36924;DHT22;22841;50.252;18.688;2023-03-31T05:28:08;6.90;99.90
36924;DHT22;22841;50.252;18.688;2023-03-31T05:30:36;6.90;99.90
36924;DHT22;22841;50.252;18.688;2023-03-31T05:33:02;7.00;99.90
36924;DHT22;22841;50.252;18.688;2023-03-31T05:35:29;7.00;99.90
36924;DHT22;22841;50.252;18.688;2023-03-31T05:37:55;7.00;99.90
36924;DHT22;22841;50.252;18.688;2023-03-31T05:40:21;7.10;99.90
36924;DHT22;22841;50.252;18.688;2023-03-31T05:42:47;7.10;99.90
36924;DHT22;22841;50.252;18.688;2023-03-31T05:45:13;7.10;99.90
36924;DHT22;22841;50.252;18.688;2023-03-31T05:47:39;7.20;99.90
36924;DHT22;22841;50.252;18.688;2023-03-31T05:50:05;7.20;99.90
36924;DHT22;22841;50.252;18.688;2023-03-31T05:52:34;7.20;99.90
36924;DHT22;22841;50.252;18.688;2023-03-31T05:55:01;7.30;99.90
36924;DHT22;22841;50.252;18.688;2023-03-31T05:57:27;7.30;99.90
36924;DHT22;22841;50.252;18.688;2023-03-31T05:59:53;7.40;99.90
36924;DHT22;22841;50.252;18.688;2023-03-31T06:02:19;7.50;99.90
36924;DHT22;22841;50.252;18.688;2023-03-31T06:04:45;7.60;99.90
36924;DHT22;22841;50.252;18.688;2023-03-31T06:07:11;7.70;99.90
36924;DHT22;22841;50.252;18.688;2023-03-31T06:09:38;7.80;99.90
36924;DHT22;22841;50.252;18.688;2023-03-31T06:12:04;8.00;99.90
36924;DHT22;22841;50.252;18.688;2023-03-31T06:14:30;8.20;92.10
36924;DHT22;22841;50.252;18.688;2023-03-31T06:16:56;8.30;69.60
36924;DHT22;22841;50.252;18.688;2023-03-31T06:19:22;8.40;49.10
36924;DHT22;22841;50.252;18.688;2023-03-31T06:21:49;8.40;99.90
36924;DHT22;22841;50.252;18.688;2023-03-31T06:24:15;8.50;99.90
36924;DHT22;22841;50.252;18.688;2023-03-31T06:26:41;8.60;99.90
36924;DHT22;22841;50.252;18.688;2023-03-31T06:29:08;8.60;99.90
36924;DHT22;22841;50.252;18.688;2023-03-31T06:31:34;8.50;99.90
36924;DHT22;22841;50.252;18.688;2023-03-31T06:34:01;8.50;99.90
36924;DHT22;22841;50.252;18.688;2023-03-31T06:36:27;8.50;99.90
36924;DHT22;22841;50.252;18.688;2023-03-31T06:38:53;8.70;99.90
36924;DHT22;22841;50.252;18.688;2023-03-31T06:41:19;8.80;99.90
36924;DHT22;22841;50.252;18.688;2023-03-31T06:43:47;8.90;99.90
36924;DHT22;22841;50.252;18.688;2023-03-31T06:46:13;9.00;99.90
36924;DHT22;22841;50.252;18.688;2023-03-31T06:48:40;9.10;99.90
36924;DHT22;22841;50.252;18.688;2023-03-31T06:51:07;9.20;99.90
36924;DHT22;22841;50.252;18.688;2023-03-31T06:53:34;9.20;99.90
36924;DHT22;22841;50.252;18.688;2023-03-31T06:56:00;9.30;99.90
36924;DHT22;22841;50.252;18.688;2023-03-31T06:58:26;9.40;99.90
36924;DHT22;22841;50.252;18.688;2023-03-31T07:00:52;9.50;99.90
36924;DHT22;22841;50.252;18.688;2023-03-31T07:03:18;9.60;99.90
36924;DHT22;22841;50.252;18.688;2023-03-31T07:05:48;9.60;99.90
36924;DHT22;22841;50.252;18.688;2023-03-31T07:08:15;9.70;99.90
36924;DHT22;22841;50.252;18.688;2023-03-31T07:10:43;9.80;99.90
36924;DHT22;22841;50.252;18.688;2023-03-31T07:13:13;9.90;99.90
36924;DHT22;22841;50.252;18.688;2023-03-31T07:15:41;10.00;99.90
36924;DHT22;22841;50.252;18.688;2023-03-31T07:18:07;10.10;99.90
36924;DHT22;22841;50.252;18.688;2023-03-31T07:20:34;10.10;99.90
36924;DHT22;22841;50.252;18.688;2023-03-31T07:23:03;10.10;99.90
36924;DHT22;22841;50.252;18.688;2023-03-31T07:25:29;10.20;99.90
36924;DHT22;22841;50.252;18.688;2023-03-31T07:27:56;10.30;99.90
36924;DHT22;22841;50.252;18.688;2023-03-31T07:30:22;10.50;99.90
36924;DHT22;22841;50.252;18.688;2023-03-31T07:32:50;10.60;99.90
36924;DHT22;22841;50.252;18.688;2023-03-31T07:35:17;10.80;99.90
36924;DHT22;22841;50.252;18.688;2023-03-31T07:37:46;10.90;99.90
36924;DHT22;22841;50.252;18.688;2023-03-31T07:40:16;10.90;99.90
36924;DHT22;22841;50.252;18.688;2023-03-31T07:42:43;10.90;99.90
36924;DHT22;22841;50.252;18.688;2023-03-31T07:45:12;10.90;99.90
36924;DHT22;22841;50.252;18.688;2023-03-31T07:47:38;10.90;99.90
36924;DHT22;22841;50.252;18.688;2023-03-31T07:50:06;10.90;99.90
36924;DHT22;22841;50.252;18.688;2023-03-31T07:52:32;10.90;99.90
36924;DHT22;22841;50.252;18.688;2023-03-31T07:54:59;11.00;99.90
36924;DHT22;22841;50.252;18.688;2023-03-31T07:57:25;11.10;99.90
36924;DHT22;22841;50.252;18.688;2023-03-31T07:59:51;11.20;99.90
36924;DHT22;22841;50.252;18.688;2023-03-31T08:02:17;11.20;99.90
36924;DHT22;22841;50.252;18.688;2023-03-31T08:04:43;11.10;99.90
36924;DHT22;22841;50.252;18.688;2023-03-31T08:07:11;11.10;99.90
36924;DHT22;22841;50.252;18.688;2023-03-31T08:09:38;11.20;99.90
36924;DHT22;22841;50.252;18.688;2023-03-31T08:12:05;11.20;99.90
36924;DHT22;22841;50.252;18.688;2023-03-31T08:14:31;11.30;99.90
36924;DHT22;22841;50.252;18.688;2023-03-31T08:16:57;11.30;99.90
36924;DHT22;22841;50.252;18.688;2023-03-31T08:19:25;11.40;99.90
36924;DHT22;22841;50.252;18.688;2023-03-31T08:21:52;11.50;99.90
36924;DHT22;22841;50.252;18.688;2023-03-31T08:24:18;11.60;99.90
36924;DHT22;22841;50.252;18.688;2023-03-31T08:26:44;11.60;99.90
36924;DHT22;22841;50.252;18.688;2023-03-31T08:29:11;11.70;99.90
36924;DHT22;22841;50.252;18.688;2023-03-31T08:31:37;12.00;99.90
36924;DHT22;22841;50.252;18.688;2023-03-31T08:34:04;12.20;99.90
36924;DHT22;22841;50.252;18.688;2023-03-31T08:36:31;12.30;99.90
36924;DHT22;22841;50.252;18.688;2023-03-31T08:38:58;12.40;99.90
36924;DHT22;22841;50.252;18.688;2023-03-31T08:41:48;12.40;99.90
36924;DHT22;22841;50.252;18.688;2023-03-31T08:44:40;12.50;99.90
36924;DHT22;22841;50.252;18.688;2023-03-31T08:47:19;12.50;99.90
36924;DHT22;22841;50.252;18.688;2023-03-31T08:49:53;12.60;99.90
36924;DHT22;22841;50.252;18.688;2023-03-31T08:52:30;12.70;99.90
36924;DHT22;22841;50.252;18.688;2023-03-31T08:55:02;12.80;99.90
36924;DHT22;22841;50.252;18.688;2023-03-31T08:57:37;12.90;99.90
36924;DHT22;22841;50.252;18.688;2023-03-31T09:00:14;12.90;99.90
36924;DHT22;22841;50.252;18.688;2023-03-31T09:05:37;13.10;99.90
36924;DHT22;22841;50.252;18.688;2023-03-31T09:08:10;13.10;99.90
36924;DHT22;22841;50.252;18.688;2023-03-31T09:16:13;13.40;99.90
36924;DHT22;22841;50.252;18.688;2023-03-31T09:18:40;13.60;99.90
36924;DHT22;22841;50.252;18.688;2023-03-31T09:21:19;13.70;99.90
36924;DHT22;22841;50.252;18.688;2023-03-31T09:24:05;13.60;99.90
36924;DHT22;22841;50.252;18.688;2023-03-31T09:26:40;13.60;99.90
36924;DHT22;22841;50.252;18.688;2023-03-31T09:29:27;13.50;99.90
36924;DHT22;22841;50.252;18.688;2023-03-31T09:32:00;13.50;99.90
36924;DHT22;22841;50.252;18.688;2023-03-31T09:34:30;13.40;99.90
36924;DHT22;22841;50.252;18.688;2023-03-31T09:36:57;13.20;99.90
36924;DHT22;22841;50.252;18.688;2023-03-31T09:39:23;13.50;99.90
36924;DHT22;22841;50.252;18.688;2023-03-31T09:41:51;13.60;99.90
36924;DHT22;22841;50.252;18.688;2023-03-31T09:44:26;13.60;99.90
36924;DHT22;22841;50.252;18.688;2023-03-31T09:46:54;13.60;99.90
36924;DHT22;22841;50.252;18.688;2023-03-31T09:49:22;13.40;99.90
36924;DHT22;22841;50.252;18.688;2023-03-31T09:52:26;13.40;99.90
36924;DHT22;22841;50.252;18.688;2023-03-31T09:54:55;13.20;99.90
36924;DHT22;22841;50.252;18.688;2023-03-31T09:57:32;13.20;99.90
36924;DHT22;22841;50.252;18.688;2023-03-31T10:00:28;13.10;99.90
36924;DHT22;22841;50.252;18.688;2023-03-31T10:02:55;13.10;99.90
36924;DHT22;22841;50.252;18.688;2023-03-31T10:05:30;13.20;99.90
36924;DHT22;22841;50.252;18.688;2023-03-31T10:11:06;13.60;99.90
36924;DHT22;22841;50.252;18.688;2023-03-31T10:16:30;13.60;99.90
36924;DHT22;22841;50.252;18.688;2023-03-31T10:19:20;13.50;99.90
36924;DHT22;22841;50.252;18.688;2023-03-31T10:21:54;13.70;99.90
36924;DHT22;22841;50.252;18.688;2023-03-31T10:24:20;13.70;99.90
36924;DHT22;22841;50.252;18.688;2023-03-31T10:26:53;13.70;99.90
36924;DHT22;22841;50.252;18.688;2023-03-31T10:29:28;13.60;99.90
36924;DHT22;22841;50.252;18.688;2023-03-31T10:31:54;13.60;99.90
36924;DHT22;22841;50.252;18.688;2023-03-31T10:34:22;13.60;99.90
36924;DHT22;22841;50.252;18.688;2023-03-31T10:36:50;13.60;99.90
36924;DHT22;22841;50.252;18.688;2023-03-31T10:39:18;13.50;99.90
36924;DHT22;22841;50.252;18.688;2023-03-31T10:41:50;13.60;99.90
36924;DHT22;22841;50.252;18.688;2023-03-31T10:44:38;13.60;99.90
36924;DHT22;22841;50.252;18.688;2023-03-31T10:47:23;13.60;99.90
36924;DHT22;22841;50.252;18.688;2023-03-31T10:49:55;13.70;99.90
36924;DHT22;22841;50.252;18.688;2023-03-31T10:52:24;13.80;99.90
36924;DHT22;22841;50.252;18.688;2023-03-31T10:54:55;13.90;99.90
36924;DHT22;22841;50.252;18.688;2023-03-31T10:57:52;13.80;99.90
36924;DHT22;22841;50.252;18.688;2023-03-31T11:00:33;13.80;99.90
36924;DHT22;22841;50.252;18.688;2023-03-31T11:06:04;13.80;99.90
36924;DHT22;22841;50.252;18.688;2023-03-31T11:08:58;13.90;99.90
36924;DHT22;22841;50.252;18.688;2023-03-31T11:14:34;13.80;99.90
36924;DHT22;22841;50.252;18.688;2023-03-31T11:17:17;13.80;99.90
36924;DHT22;22841;50.252;18.688;2023-03-31T11:19:54;13.80;99.90
36924;DHT22;22841;50.252;18.688;2023-03-31T11:22:45;13.80;99.90
36924;DHT22;22841;50.252;18.688;2023-03-31T11:25:32;13.60;99.90
36924;DHT22;22841;50.252;18.688;2023-03-31T11:30:57;13.50;99.90
36924;DHT22;22841;50.252;18.688;2023-03-31T11:36:22;13.60;99.90
36924;DHT22;22841;50.252;18.688;2023-03-31T11:41:35;13.60;99.90
36924;DHT22;22841;50.252;18.688;2023-03-31T11:44:07;13.70;99.90
36924;DHT22;22841;50.252;18.688;2023-03-31T11:49:18;13.70;99.90
36924;DHT22;22841;50.252;18.688;2023-03-31T11:54:38;13.70;99.90
36924;DHT22;22841;50.252;18.688;2023-03-31T11:57:22;13.60;99.90
36924;DHT22;22841;50.252;18.688;2023-03-31T11:59:59;13.50;99.90
36924;DHT22;22841;50.252;18.688;2023-03-31T12:02:51;13.30;99.90
36924;DHT22;22841;50.252;18.688;2023-03-31T12:05:21;13.30;99.90
36924;DHT22;22841;50.252;18.688;2023-03-31T12:10:28;13.40;99.90
36924;DHT22;22841;50.252;18.688;2023-03-31T12:13:22;13.50;99.90
36924;DHT22;22841;50.252;18.688;2023-03-31T12:18:29;13.90;99.90
36924;DHT22;22841;50.252;18.688;2023-03-31T12:21:01;14.10;99.90
36924;DHT22;22841;50.252;18.688;2023-03-31T12:23:32;14.20;99.90
36924;DHT22;22841;50.252;18.688;2023-03-31T12:28:30;14.70;99.90
36924;DHT22;22841;50.252;18.688;2023-03-31T12:30:59;15.00;99.90
36924;DHT22;22841;50.252;18.688;2023-03-31T12:33:31;15.20;99.90
36924;DHT22;22841;50.252;18.688;2023-03-31T12:36:16;15.50;99.90
36924;DHT22;22841;50.252;18.688;2023-03-31T12:39:13;15.60;99.90
36924;DHT22;22841;50.252;18.688;2023-03-31T12:47:41;15.20;99.90
36924;DHT22;22841;50.252;18.688;2023-03-31T12:50:21;15.00;99.90
36924;DHT22;22841;50.252;18.688;2023-03-31T13:01:01;14.60;99.90
36924;DHT22;22841;50.252;18.688;2023-03-31T13:06:04;14.50;99.90
36924;DHT22;22841;50.252;18.688;2023-03-31T13:09:04;14.30;99.90
36924;DHT22;22841;50.252;18.688;2023-03-31T13:16:29;14.30;99.90
36924;DHT22;22841;50.252;18.688;2023-03-31T13:18:56;14.20;99.90
36924;DHT22;22841;50.252;18.688;2023-03-31T13:21:23;14.10;99.90
36924;DHT22;22841;50.252;18.688;2023-03-31T13:23:50;14.00;99.90
36924;DHT22;22841;50.252;18.688;2023-03-31T13:43:16;13.10;99.90
36924;DHT22;22841;50.252;18.688;2023-03-31T13:48:48;12.80;99.90
36924;DHT22;22841;50.252;18.688;2023-03-31T14:04:54;12.20;99.90
36924;DHT22;22841;50.252;18.688;2023-03-31T14:07:39;12.10;99.90
36924;DHT22;22841;50.252;18.688;2023-03-31T14:10:25;12.00;99.90
36924;DHT22;22841;50.252;18.688;2023-03-31T14:13:13;11.80;99.90
36924;DHT22;22841;50.252;18.688;2023-03-31T14:18:11;11.70;99.90
36924;DHT22;22841;50.252;18.688;2023-03-31T14:21:16;11.60;99.90
36924;DHT22;22841;50.252;18.688;2023-03-31T14:24:14;11.60;99.90
36924;DHT22;22841;50.252;18.688;2023-03-31T14:27:34;11.50;99.90
36924;DHT22;22841;50.252;18.688;2023-03-31T14:29:40;11.50;99.90
36924;DHT22;22841;50.252;18.688;2023-03-31T14:37:29;11.40;99.90
36924;DHT22;22841;50.252;18.688;2023-03-31T14:39:57;11.40;99.90
36924;DHT22;22841;50.252;18.688;2023-03-31T14:42:31;11.30;99.90
36924;DHT22;22841;50.252;18.688;2023-03-31T14:45:04;11.30;99.90
36924;DHT22;22841;50.252;18.688;2023-03-31T14:47:31;11.20;99.90
36924;DHT22;22841;50.252;18.688;2023-03-31T14:50:04;11.20;99.90
36924;DHT22;22841;50.252;18.688;2023-03-31T14:52:32;11.30;99.90
36924;DHT22;22841;50.252;18.688;2023-03-31T14:54:59;11.30;99.90
36924;DHT22;22841;50.252;18.688;2023-03-31T14:57:37;11.20;99.90
36924;DHT22;22841;50.252;18.688;2023-03-31T15:00:06;11.30;99.90
36924;DHT22;22841;50.252;18.688;2023-03-31T15:02:36;11.30;99.90
36924;DHT22;22841;50.252;18.688;2023-03-31T15:05:05;11.20;99.90
36924;DHT22;22841;50.252;18.688;2023-03-31T15:07:34;11.20;99.90
36924;DHT22;22841;50.252;18.688;2023-03-31T15:10:01;11.30;99.90
36924;DHT22;22841;50.252;18.688;2023-03-31T15:12:29;11.30;99.90
36924;DHT22;22841;50.252;18.688;2023-03-31T15:14:59;11.30;99.90
36924;DHT22;22841;50.252;18.688;2023-03-31T15:17:36;11.30;99.90
36924;DHT22;22841;50.252;18.688;2023-03-31T15:20:28;11.40;99.90
36924;DHT22;22841;50.252;18.688;2023-03-31T15:22:56;11.50;99.90
36924;DHT22;22841;50.252;18.688;2023-03-31T15:25:27;11.70;99.90
36924;DHT22;22841;50.252;18.688;2023-03-31T15:28:04;11.80;99.90
36924;DHT22;22841;50.252;18.688;2023-03-31T15:30:31;11.90;99.90
36924;DHT22;22841;50.252;18.688;2023-03-31T15:32:58;12.00;99.90
36924;DHT22;22841;50.252;18.688;2023-03-31T15:35:31;12.10;99.90
36924;DHT22;22841;50.252;18.688;2023-03-31T15:37:59;12.30;99.90
36924;DHT22;22841;50.252;18.688;2023-03-31T15:40:28;12.30;99.90
36924;DHT22;22841;50.252;18.688;2023-03-31T15:43:07;12.30;99.90
36924;DHT22;22841;50.252;18.688;2023-03-31T15:45:44;12.30;99.90
36924;DHT22;22841;50.252;18.688;2023-03-31T15:48:34;12.20;99.90
36924;DHT22;22841;50.252;18.688;2023-03-31T15:51:05;12.20;99.90
36924;DHT22;22841;50.252;18.688;2023-03-31T15:53:37;12.10;99.90
36924;DHT22;22841;50.252;18.688;2023-03-31T15:56:04;12.00;99.90
36924;DHT22;22841;50.252;18.688;2023-03-31T15:58:59;12.00;99.90
36924;DHT22;22841;50.252;18.688;2023-03-31T16:01:40;11.80;99.90
36924;DHT22;22841;50.252;18.688;2023-03-31T16:04:10;11.80;99.90
36924;DHT22;22841;50.252;18.688;2023-03-31T16:09:08;11.70;99.90
36924;DHT22;22841;50.252;18.688;2023-03-31T16:11:40;11.60;
36924;DHT22;22841;50.252;18.688;2023-03-31T16:14:12;11.60;99.90
36924;DHT22;22841;50.252;18.688;2023-03-31T16:16:45;11.60;99.90
36924;DHT22;22841;50.252;18.688;2023-03-31T16:19:12;11.50;99.90
36924;DHT22;22841;50.252;18.688;2023-03-31T16:21:42;11.50;99.90
36924;DHT22;22841;50.252;18.688;2023-03-31T16:24:09;11.50;99.90
36924;DHT22;22841;50.252;18.688;2023-03-31T16:26:36;11.50;99.90
36924;DHT22;22841;50.252;18.688;2023-03-31T16:29:03;11.50;99.90
36924;DHT22;22841;50.252;18.688;2023-03-31T16:31:38;11.40;99.90
36924;DHT22;22841;50.252;18.688;2023-03-31T16:34:11;11.40;99.90
36924;DHT22;22841;50.252;18.688;2023-03-31T16:36:37;11.40;99.90
36924;DHT22;22841;50.252;18.688;2023-03-31T16:39:04;11.40;99.90
36924;DHT22;22841;50.252;18.688;2023-03-31T16:41:35;11.40;99.90
36924;DHT22;22841;50.252;18.688;2023-03-31T16:44:02;11.40;99.90
36924;DHT22;22841;50.252;18.688;2023-03-31T16:46:28;11.40;99.90
36924;DHT22;22841;50.252;18.688;2023-03-31T16:48:55;11.40;99.90
36924;DHT22;22841;50.252;18.688;2023-03-31T16:51:21;11.40;99.90
36924;DHT22;22841;50.252;18.688;2023-03-31T16:53:48;11.30;99.90
36924;DHT22;22841;50.252;18.688;2023-03-31T16:56:14;11.30;99.90
36924;DHT22;22841;50.252;18.688;2023-03-31T16:58:41;11.30;99.90
36924;DHT22;22841;50.252;18.688;2023-03-31T17:01:09;11.20;99.90
36924;DHT22;22841;50.252;18.688;2023-03-31T17:03:36;11.30;99.90
36924;DHT22;22841;50.252;18.688;2023-03-31T17:06:07;11.30;99.90
36924;DHT22;22841;50.252;18.688;2023-03-31T17:08:33;11.20;99.90
36924;DHT22;22841;50.252;18.688;2023-03-31T17:11:11;11.20;99.90
36924;DHT22;22841;50.252;18.688;2023-03-31T17:13:38;11.20;99.90
36924;DHT22;22841;50.252;18.688;2023-03-31T17:16:05;11.20;99.90
36924;DHT22;22841;50.252;18.688;2023-03-31T17:18:31;11.30;99.90
36924;DHT22;22841;50.252;18.688;2023-03-31T17:21:09;11.30;99.90
36924;DHT22;22841;50.252;18.688;2023-03-31T17:23:36;11.20;99.90
36924;DHT22;22841;50.252;18.688;2023-03-31T17:26:03;10.90;99.90
36924;DHT22;22841;50.252;18.688;2023-03-31T17:28:29;10.70;99.90
36924;DHT22;22841;50.252;18.688;2023-03-31T17:30:56;10.50;99.90
36924;DHT22;22841;50.252;18.688;2023-03-31T17:33:22;10.40;99.90
36924;DHT22;22841;50.252;18.688;2023-03-31T17:35:48;10.20;99.90
36924;DHT22;22841;50.252;18.688;2023-03-31T17:38:15;10.00;99.90
36924;DHT22;22841;50.252;18.688;2023-03-31T17:40:44;9.80;99.90
36924;DHT22;22841;50.252;18.688;2023-03-31T17:43:10;9.80;99.90
36924;DHT22;22841;50.252;18.688;2023-03-31T17:45:37;9.70;99.90
36924;DHT22;22841;50.252;18.688;2023-03-31T17:48:03;9.80;99.90
36924;DHT22;22841;50.252;18.688;2023-03-31T17:50:31;9.80;99.90
36924;DHT22;22841;50.252;18.688;2023-03-31T17:52:58;9.80;99.90
36924;DHT22;22841;50.252;18.688;2023-03-31T17:55:24;9.80;99.90
36924;DHT22;22841;50.252;18.688;2023-03-31T17:57:50;9.90;99.90
36924;DHT22;22841;50.252;18.688;2023-03-31T18:00:16;9.90;99.90
36924;DHT22;22841;50.252;18.688;2023-03-31T18:02:42;9.90;99.90
36924;DHT22;22841;50.252;18.688;2023-03-31T18:05:09;9.80;99.90
36924;DHT22;22841;50.252;18.688;2023-03-31T18:07:36;9.70;99.90
36924;DHT22;22841;50.252;18.688;2023-03-31T18:10:04;9.70;99.90
36924;DHT22;22841;50.252;18.688;2023-03-31T18:12:34;9.60;99.90
36924;DHT22;22841;50.252;18.688;2023-03-31T18:15:02;9.60;99.90
36924;DHT22;22841;50.252;18.688;2023-03-31T18:17:30;9.60;99.90
36924;DHT22;22841;50.252;18.688;2023-03-31T18:19:56;9.60;99.90
36924;DHT22;22841;50.252;18.688;2023-03-31T18:22:24;9.60;99.90
36924;DHT22;22841;50.252;18.688;2023-03-31T18:24:52;9.60;99.90